sensor_id;sensor_type;location;lat;lon;timestamp;pressure;altitude;pressure_sealevel;temperature;humidity
51526;BME280;37611;51.794;21.590;2023-05-25T00:00:13;100269.48;;;13.83;100.00
51526;BME280;37611;51.794;21.590;2023-05-25T00:04:36;100273.30;;;13.76;100.00
51526;BME280;37611;51.794;21.590;2023-05-25T00:08:38;100274.94;;;13.74;100.00
51526;BME280;37611;51.794;21.590;2023-05-25T00:12:44;100277.98;;;13.72;100.00
51526;BME280;37611;51.794;21.590;2023-05-25T00:16:46;100276.86;;;13.67;100.00
51526;BME280;37611;51.794;21.590;2023-05-25T00:20:49;100276.48;;;13.61;100.00
51526;BME280;37611;51.794;21.590;2023-05-25T00:25:00;100279.16;;;13.54;100.00
51526;BME280;37611;51.794;21.590;2023-05-25T00:29:04;100286.05;;;13.51;100.00
51526;BME280;37611;51.794;21.590;2023-05-25T00:33:05;100290.30;;;13.44;100.00
51526;BME280;37611;51.794;21.590;2023-05-25T00:37:08;100290.71;;;13.35;100.00
51526;BME280;37611;51.794;21.590;2023-05-25T00:41:15;100295.10;;;13.32;100.00
51526;BME280;37611;51.794;21.590;2023-05-25T00:45:21;100299.29;;;13.27;100.00
51526;BME280;37611;51.794;21.590;2023-05-25T00:49:24;100302.51;;;13.21;100.00
51526;BME280;37611;51.794;21.590;2023-05-25T00:53:26;100300.58;;;13.15;100.00
51526;BME280;37611;51.794;21.590;2023-05-25T00:57:29;100304.30;;;13.11;100.00
51526;BME280;37611;51.794;21.590;2023-05-25T01:01:35;100307.69;;;13.09;100.00
51526;BME280;37611;51.794;21.590;2023-05-25T01:05:44;100301.35;;;13.06;100.00
51526;BME280;37611;51.794;21.590;2023-05-25T01:09:56;100305.88;;;13.03;100.00
51526;BME280;37611;51.794;21.590;2023-05-25T01:13:58;100301.42;;;13.02;100.00
51526;BME280;37611;51.794;21.590;2023-05-25T01:18:01;100300.26;;;13.03;100.00
51526;BME280;37611;51.794;21.590;2023-05-25T01:22:14;100301.41;;;13.05;100.00
51526;BME280;37611;51.794;21.590;2023-05-25T01:26:17;100301.89;;;13.04;100.00
51526;BME280;37611;51.794;21.590;2023-05-25T01:30:20;100304.34;;;13.06;100.00
51526;BME280;37611;51.794;21.590;2023-05-25T01:34:23;100302.64;;;13.07;100.00
51526;BME280;37611;51.794;21.590;2023-05-25T01:38:25;100302.11;;;13.09;100.00
51526;BME280;37611;51.794;21.590;2023-05-25T01:42:27;100300.70;;;13.10;100.00
51526;BME280;37611;51.794;21.590;2023-05-25T01:46:38;100297.40;;;13.13;100.00
51526;BME280;37611;51.794;21.590;2023-05-25T01:55:07;100298.30;;;13.14;100.00
51526;BME280;37611;51.794;21.590;2023-05-25T01:59:14;100298.46;;;13.15;100.00
51526;BME280;37611;51.794;21.590;2023-05-25T02:03:17;100300.23;;;13.13;100.00
51526;BME280;37611;51.794;21.590;2023-05-25T02:07:21;100301.98;;;13.11;100.00
51526;BME280;37611;51.794;21.590;2023-05-25T02:11:23;100308.16;;;13.11;100.00
51526;BME280;37611;51.794;21.590;2023-05-25T02:15:29;100305.91;;;13.13;100.00
51526;BME280;37611;51.794;21.590;2023-05-25T02:19:31;100302.31;;;13.13;100.00
51526;BME280;37611;51.794;21.590;2023-05-25T02:23:33;100303.46;;;13.09;100.00
51526;BME280;37611;51.794;21.590;2023-05-25T02:27:35;100304.61;;;13.08;100.00
51526;BME280;37611;51.794;21.590;2023-05-25T02:31:37;100304.15;;;13.09;100.00
51526;BME280;37611;51.794;21.590;2023-05-25T02:35:38;100306.42;;;13.08;100.00
51526;BME280;37611;51.794;21.590;2023-05-25T02:39:40;100309.94;;;13.06;100.00
51526;BME280;37611;51.794;21.590;2023-05-25T02:43:42;100305.67;;;13.08;100.00
51526;BME280;37611;51.794;21.590;2023-05-25T02:47:43;100304.13;;;13.11;100.00
51526;BME280;37611;51.794;21.590;2023-05-25T02:51:45;100305.52;;;13.11;100.00
51526;BME280;37611;51.794;21.590;2023-05-25T02:55:47;100306.12;;;13.15;100.00
51526;BME280;37611;51.794;21.590;2023-05-25T02:59:49;100308.55;;;13.17;100.00
51526;BME280;37611;51.794;21.590;2023-05-25T03:03:51;100307.61;;;13.18;100.00
51526;BME280;37611;51.794;21.590;2023-05-25T03:07:53;100311.37;;;13.16;100.00
51526;BME280;37611;51.794;21.590;2023-05-25T03:11:55;100314.01;;;13.17;100.00
51526;BME280;37611;51.794;21.590;2023-05-25T03:15:56;100315.79;;;13.19;100.00
51526;BME280;37611;51.794;21.590;2023-05-25T03:19:58;100317.40;;;13.22;100.00
51526;BME280;37611;51.794;21.590;2023-05-25T03:24:00;100318.49;;;13.25;100.00
51526;BME280;37611;51.794;21.590;2023-05-25T03:28:01;100321.19;;;13.26;100.00
51526;BME280;37611;51.794;21.590;2023-05-25T03:32:03;100329.39;;;13.23;100.00
51526;BME280;37611;51.794;21.590;2023-05-25T03:36:09;100324.16;;;13.21;100.00
51526;BME280;37611;51.794;21.590;2023-05-25T03:40:11;100327.39;;;13.20;100.00
51526;BME280;37611;51.794;21.590;2023-05-25T03:44:13;100333.23;;;13.22;100.00
51526;BME280;37611;51.794;21.590;2023-05-25T03:48:14;100334.59;;;13.24;100.00
51526;BME280;37611;51.794;21.590;2023-05-25T03:52:16;100332.94;;;13.25;100.00
51526;BME280;37611;51.794;21.590;2023-05-25T03:56:18;100338.16;;;13.22;100.00
51526;BME280;37611;51.794;21.590;2023-05-25T04:00:19;100342.86;;;13.21;100.00
51526;BME280;37611;51.794;21.590;2023-05-25T04:04:21;100350.92;;;13.23;100.00
51526;BME280;37611;51.794;21.590;2023-05-25T04:08:23;100345.70;;;13.22;100.00
51526;BME280;37611;51.794;21.590;2023-05-25T04:12:26;100344.73;;;13.23;100.00
51526;BME280;37611;51.794;21.590;2023-05-25T04:16:28;100349.56;;;13.24;100.00
51526;BME280;37611;51.794;21.590;2023-05-25T04:20:30;100357.41;;;13.27;100.00
51526;BME280;37611;51.794;21.590;2023-05-25T04:24:31;100359.14;;;13.29;100.00
51526;BME280;37611;51.794;21.590;2023-05-25T04:28:34;100356.70;;;13.31;100.00
51526;BME280;37611;51.794;21.590;2023-05-25T04:32:38;100361.73;;;13.34;100.00
51526;BME280;37611;51.794;21.590;2023-05-25T04:36:40;100365.23;;;13.34;100.00
51526;BME280;37611;51.794;21.590;2023-05-25T04:40:43;100370.30;;;13.37;100.00
51526;BME280;37611;51.794;21.590;2023-05-25T04:44:47;100372.77;;;13.41;100.00
51526;BME280;37611;51.794;21.590;2023-05-25T04:48:49;100372.63;;;13.42;100.00
51526;BME280;37611;51.794;21.590;2023-05-25T04:52:51;100378.05;;;13.43;100.00
51526;BME280;37611;51.794;21.590;2023-05-25T04:56:52;100379.37;;;13.45;100.00
51526;BME280;37611;51.794;21.590;2023-05-25T05:00:55;100379.40;;;13.44;100.00
51526;BME280;37611;51.794;21.590;2023-05-25T05:04:56;100379.54;;;13.47;100.00
51526;BME280;37611;51.794;21.590;2023-05-25T05:08:59;100386.30;;;13.49;100.00
51526;BME280;37611;51.794;21.590;2023-05-25T05:13:00;100395.64;;;13.51;100.00
51526;BME280;37611;51.794;21.590;2023-05-25T05:17:02;100393.94;;;13.56;100.00
51526;BME280;37611;51.794;21.590;2023-05-25T05:21:04;100392.86;;;13.61;100.00
51526;BME280;37611;51.794;21.590;2023-05-25T05:25:06;100397.72;;;13.63;100.00
51526;BME280;37611;51.794;21.590;2023-05-25T05:29:08;100391.96;;;13.64;100.00
51526;BME280;37611;51.794;21.590;2023-05-25T05:33:10;100393.66;;;13.68;100.00
51526;BME280;37611;51.794;21.590;2023-05-25T05:37:12;100396.75;;;13.72;100.00
51526;BME280;37611;51.794;21.590;2023-05-25T05:41:14;100400.41;;;13.78;100.00
51526;BME280;37611;51.794;21.590;2023-05-25T05:45:15;100405.39;;;13.80;100.00
51526;BME280;37611;51.794;21.590;2023-05-25T05:49:17;100413.68;;;13.83;100.00
51526;BME280;37611;51.794;21.590;2023-05-25T05:53:19;100416.46;;;13.82;100.00
51526;BME280;37611;51.794;21.590;2023-05-25T05:57:21;100417.52;;;13.79;100.00
51526;BME280;37611;51.794;21.590;2023-05-25T06:01:23;100418.33;;;13.81;100.00
51526;BME280;37611;51.794;21.590;2023-05-25T06:05:25;100425.70;;;13.83;100.00
51526;BME280;37611;51.794;21.590;2023-05-25T06:09:27;100429.14;;;13.87;100.00
51526;BME280;37611;51.794;21.590;2023-05-25T06:13:29;100429.15;;;13.92;100.00
51526;BME280;37611;51.794;21.590;2023-05-25T06:17:30;100430.38;;;13.95;100.00
51526;BME280;37611;51.794;21.590;2023-05-25T06:21:32;100432.85;;;13.98;100.00
51526;BME280;37611;51.794;21.590;2023-05-25T06:25:34;100436.77;;;14.05;100.00
51526;BME280;37611;51.794;21.590;2023-05-25T06:29:35;100433.59;;;14.11;100.00
51526;BME280;37611;51.794;21.590;2023-05-25T06:33:37;100432.07;;;14.19;100.00
51526;BME280;37611;51.794;21.590;2023-05-25T06:37:39;100436.23;;;14.16;100.00
51526;BME280;37611;51.794;21.590;2023-05-25T06:41:40;100441.39;;;14.16;100.00
51526;BME280;37611;51.794;21.590;2023-05-25T06:45:42;100441.12;;;14.16;100.00
51526;BME280;37611;51.794;21.590;2023-05-25T06:49:44;100443.48;;;14.19;100.00
51526;BME280;37611;51.794;21.590;2023-05-25T06:53:46;100447.95;;;14.27;100.00
51526;BME280;37611;51.794;21.590;2023-05-25T06:57:47;100448.61;;;14.35;100.00
51526;BME280;37611;51.794;21.590;2023-05-25T07:01:49;100452.20;;;14.40;100.00
51526;BME280;37611;51.794;21.590;2023-05-25T07:05:51;100452.40;;;14.48;100.00
51526;BME280;37611;51.794;21.590;2023-05-25T07:09:52;100459.85;;;14.56;100.00
51526;BME280;37611;51.794;21.590;2023-05-25T07:13:54;100458.06;;;14.56;100.00
51526;BME280;37611;51.794;21.590;2023-05-25T07:17:56;100461.14;;;14.62;100.00
51526;BME280;37611;51.794;21.590;2023-05-25T07:21:57;100462.27;;;14.71;100.00
51526;BME280;37611;51.794;21.590;2023-05-25T07:25:59;100463.06;;;14.75;100.00
51526;BME280;37611;51.794;21.590;2023-05-25T07:30:01;100468.73;;;14.82;100.00
51526;BME280;37611;51.794;21.590;2023-05-25T07:34:02;100470.96;;;14.94;100.00
51526;BME280;37611;51.794;21.590;2023-05-25T07:38:04;100473.02;;;15.03;100.00
51526;BME280;37611;51.794;21.590;2023-05-25T07:42:06;100475.54;;;15.04;100.00
51526;BME280;37611;51.794;21.590;2023-05-25T07:46:08;100470.13;;;15.08;100.00
51526;BME280;37611;51.794;21.590;2023-05-25T07:50:10;100465.88;;;15.13;100.00
51526;BME280;37611;51.794;21.590;2023-05-25T07:54:11;100468.98;;;15.17;100.00
51526;BME280;37611;51.794;21.590;2023-05-25T07:58:13;100466.55;;;15.21;100.00
51526;BME280;37611;51.794;21.590;2023-05-25T08:02:15;100466.71;;;15.23;100.00
51526;BME280;37611;51.794;21.590;2023-05-25T08:06:17;100466.63;;;15.27;100.00
51526;BME280;37611;51.794;21.590;2023-05-25T08:10:18;100467.80;;;15.31;100.00
51526;BME280;37611;51.794;21.590;2023-05-25T08:14:20;100466.09;;;15.38;100.00
51526;BME280;37611;51.794;21.590;2023-05-25T08:18:24;100466.13;;;15.39;100.00
51526;BME280;37611;51.794;21.590;2023-05-25T08:22:25;100465.38;;;15.37;100.00
51526;BME280;37611;51.794;21.590;2023-05-25T08:26:27;100467.24;;;15.29;100.00
51526;BME280;37611;51.794;21.590;2023-05-25T08:30:29;100465.98;;;15.22;100.00
51526;BME280;37611;51.794;21.590;2023-05-25T08:34:31;100468.11;;;15.16;100.00
51526;BME280;37611;51.794;21.590;2023-05-25T08:38:33;100463.73;;;15.26;100.00
51526;BME280;37611;51.794;21.590;2023-05-25T08:42:35;100468.44;;;15.31;100.00
51526;BME280;37611;51.794;21.590;2023-05-25T08:46:36;100470.16;;;15.46;100.00
51526;BME280;37611;51.794;21.590;2023-05-25T08:50:38;100473.77;;;15.62;100.00
51526;BME280;37611;51.794;21.590;2023-05-25T08:54:45;100474.09;;;15.67;100.00
51526;BME280;37611;51.794;21.590;2023-05-25T08:59:03;100471.95;;;15.73;100.00
51526;BME280;37611;51.794;21.590;2023-05-25T09:03:14;100467.48;;;15.88;100.00
51526;BME280;37611;51.794;21.590;2023-05-25T09:07:16;100466.34;;;16.01;100.00
51526;BME280;37611;51.794;21.590;2023-05-25T09:11:19;100470.67;;;16.22;100.00
51526;BME280;37611;51.794;21.590;2023-05-25T09:15:21;100469.89;;;16.41;100.00
51526;BME280;37611;51.794;21.590;2023-05-25T09:19:23;100472.26;;;16.58;100.00
51526;BME280;37611;51.794;21.590;2023-05-25T09:23:25;100471.98;;;16.64;100.00
51526;BME280;37611;51.794;21.590;2023-05-25T09:27:27;100476.81;;;16.73;100.00
51526;BME280;37611;51.794;21.590;2023-05-25T09:31:30;100477.62;;;16.90;100.00
51526;BME280;37611;51.794;21.590;2023-05-25T09:35:32;100477.98;;;17.12;100.00
51526;BME280;37611;51.794;21.590;2023-05-25T09:39:34;100482.52;;;17.30;100.00
51526;BME280;37611;51.794;21.590;2023-05-25T09:43:36;100481.55;;;17.40;100.00
51526;BME280;37611;51.794;21.590;2023-05-25T09:47:39;100486.33;;;17.46;100.00
51526;BME280;37611;51.794;21.590;2023-05-25T09:51:40;100481.91;;;17.56;100.00
51526;BME280;37611;51.794;21.590;2023-05-25T09:55:42;100480.48;;;17.72;100.00
51526;BME280;37611;51.794;21.590;2023-05-25T09:59:45;100484.11;;;17.88;100.00
51526;BME280;37611;51.794;21.590;2023-05-25T10:03:47;100480.05;;;18.07;100.00
51526;BME280;37611;51.794;21.590;2023-05-25T10:07:50;100481.80;;;18.26;100.00
51526;BME280;37611;51.794;21.590;2023-05-25T10:11:55;100478.38;;;18.47;100.00
51526;BME280;37611;51.794;21.590;2023-05-25T10:15:58;100479.37;;;18.51;100.00
51526;BME280;37611;51.794;21.590;2023-05-25T10:20:00;100484.08;;;18.66;100.00
51526;BME280;37611;51.794;21.590;2023-05-25T10:24:23;100481.04;;;18.97;100.00
51526;BME280;37611;51.794;21.590;2023-05-25T10:28:36;100477.56;;;19.21;100.00
51526;BME280;37611;51.794;21.590;2023-05-25T10:32:39;100479.83;;;19.37;99.83
51526;BME280;37611;51.794;21.590;2023-05-25T10:36:48;100477.84;;;19.50;98.61
51526;BME280;37611;51.794;21.590;2023-05-25T10:40:50;100478.14;;;19.68;98.34
51526;BME280;37611;51.794;21.590;2023-05-25T10:44:56;100476.11;;;20.07;97.54
51526;BME280;37611;51.794;21.590;2023-05-25T10:48:59;100475.82;;;20.09;95.12
51526;BME280;37611;51.794;21.590;2023-05-25T10:53:07;100470.46;;;20.21;96.10
51526;BME280;37611;51.794;21.590;2023-05-25T10:57:21;100475.64;;;20.36;96.07
51526;BME280;37611;51.794;21.590;2023-05-25T11:01:24;100475.49;;;20.69;95.04
51526;BME280;37611;51.794;21.590;2023-05-25T11:09:31;100476.25;;;20.83;93.24
51526;BME280;37611;51.794;21.590;2023-05-25T11:13:37;100480.11;;;21.00;93.01
51526;BME280;37611;51.794;21.590;2023-05-25T11:17:46;100479.69;;;21.09;91.54
51526;BME280;37611;51.794;21.590;2023-05-25T11:22:33;100476.14;;;21.09;92.04
51526;BME280;37611;51.794;21.590;2023-05-25T11:26:34;100474.40;;;21.31;92.19
51526;BME280;37611;51.794;21.590;2023-05-25T11:30:38;100468.10;;;21.51;91.53
51526;BME280;37611;51.794;21.590;2023-05-25T11:34:40;100461.91;;;21.80;91.29
51526;BME280;37611;51.794;21.590;2023-05-25T11:38:46;100460.64;;;22.00;90.79
51526;BME280;37611;51.794;21.590;2023-05-25T11:42:51;100459.00;;;22.13;89.37
51526;BME280;37611;51.794;21.590;2023-05-25T11:46:55;100461.48;;;21.98;87.03
51526;BME280;37611;51.794;21.590;2023-05-25T11:51:05;100462.58;;;21.77;85.89
51526;BME280;37611;51.794;21.590;2023-05-25T11:55:11;100457.76;;;21.65;87.30
51526;BME280;37611;51.794;21.590;2023-05-25T11:59:13;100457.64;;;21.80;87.42
51526;BME280;37611;51.794;21.590;2023-05-25T12:03:31;100457.21;;;21.94;87.56
51526;BME280;37611;51.794;21.590;2023-05-25T12:07:33;100458.80;;;22.18;87.16
51526;BME280;37611;51.794;21.590;2023-05-25T12:11:36;100450.99;;;22.35;85.07
51526;BME280;37611;51.794;21.590;2023-05-25T12:15:45;100452.03;;;22.42;84.94
51526;BME280;37611;51.794;21.590;2023-05-25T12:19:48;100446.56;;;22.57;84.32
51526;BME280;37611;51.794;21.590;2023-05-25T12:23:52;100442.71;;;22.63;83.87
51526;BME280;37611;51.794;21.590;2023-05-25T12:28:11;100438.80;;;22.66;83.45
51526;BME280;37611;51.794;21.590;2023-05-25T12:32:13;100434.23;;;22.66;83.23
51526;BME280;37611;51.794;21.590;2023-05-25T12:36:15;100429.28;;;22.77;83.66
51526;BME280;37611;51.794;21.590;2023-05-25T12:40:18;100430.01;;;22.85;83.35
51526;BME280;37611;51.794;21.590;2023-05-25T12:44:21;100424.47;;;22.93;82.86
51526;BME280;37611;51.794;21.590;2023-05-25T12:48:27;100419.36;;;22.92;82.67
51526;BME280;37611;51.794;21.590;2023-05-25T12:52:39;100419.05;;;22.84;83.54
51526;BME280;37611;51.794;21.590;2023-05-25T12:56:57;100414.68;;;22.65;83.28
51526;BME280;37611;51.794;21.590;2023-05-25T13:00:59;100410.33;;;22.41;83.72
51526;BME280;37611;51.794;21.590;2023-05-25T13:05:00;100408.64;;;22.28;85.35
51526;BME280;37611;51.794;21.590;2023-05-25T13:09:02;100404.83;;;22.26;85.45
51526;BME280;37611;51.794;21.590;2023-05-25T13:13:05;100402.55;;;22.21;86.15
51526;BME280;37611;51.794;21.590;2023-05-25T13:17:07;100397.59;;;22.29;86.55
51526;BME280;37611;51.794;21.590;2023-05-25T13:21:09;100386.77;;;22.42;86.56
51526;BME280;37611;51.794;21.590;2023-05-25T13:25:12;100375.48;;;22.60;86.63
51526;BME280;37611;51.794;21.590;2023-05-25T13:29:15;100373.73;;;22.73;85.78
51526;BME280;37611;51.794;21.590;2023-05-25T13:33:16;100375.24;;;22.77;85.63
51526;BME280;37611;51.794;21.590;2023-05-25T13:37:18;100375.68;;;22.83;85.76
51526;BME280;37611;51.794;21.590;2023-05-25T13:41:20;100365.97;;;22.98;85.64
51526;BME280;37611;51.794;21.590;2023-05-25T13:45:22;100360.98;;;23.09;84.65
51526;BME280;37611;51.794;21.590;2023-05-25T13:49:23;100360.27;;;23.02;84.85
51526;BME280;37611;51.794;21.590;2023-05-25T13:53:25;100361.41;;;22.91;84.85
51526;BME280;37611;51.794;21.590;2023-05-25T13:57:28;100362.35;;;22.89;84.79
51526;BME280;37611;51.794;21.590;2023-05-25T14:01:29;100353.50;;;22.93;85.16
51526;BME280;37611;51.794;21.590;2023-05-25T14:05:33;100350.09;;;22.96;84.79
51526;BME280;37611;51.794;21.590;2023-05-25T14:09:34;100348.26;;;22.97;85.44
51526;BME280;37611;51.794;21.590;2023-05-25T14:13:37;100349.70;;;23.04;85.08
51526;BME280;37611;51.794;21.590;2023-05-25T14:17:39;100348.83;;;23.08;84.64
51526;BME280;37611;51.794;21.590;2023-05-25T14:21:41;100348.33;;;23.09;84.37
51526;BME280;37611;51.794;21.590;2023-05-25T14:25:42;100347.13;;;23.08;84.03
51526;BME280;37611;51.794;21.590;2023-05-25T14:29:44;100344.95;;;22.94;84.61
51526;BME280;37611;51.794;21.590;2023-05-25T14:33:46;100337.89;;;22.90;85.19
51526;BME280;37611;51.794;21.590;2023-05-25T14:37:48;100338.98;;;22.88;85.31
51526;BME280;37611;51.794;21.590;2023-05-25T14:41:49;100342.29;;;22.87;85.33
51526;BME280;37611;51.794;21.590;2023-05-25T14:45:51;100341.36;;;22.86;85.52
51526;BME280;37611;51.794;21.590;2023-05-25T14:49:53;100336.99;;;22.79;85.01
51526;BME280;37611;51.794;21.590;2023-05-25T14:53:55;100339.15;;;22.78;85.04
51526;BME280;37611;51.794;21.590;2023-05-25T14:57:58;100338.14;;;22.80;84.47
51526;BME280;37611;51.794;21.590;2023-05-25T15:01:59;100340.36;;;22.76;84.14
51526;BME280;37611;51.794;21.590;2023-05-25T15:06:01;100337.79;;;22.64;82.78
51526;BME280;37611;51.794;21.590;2023-05-25T15:10:03;100335.49;;;22.51;83.57
51526;BME280;37611;51.794;21.590;2023-05-25T15:14:05;100336.02;;;22.49;83.86
51526;BME280;37611;51.794;21.590;2023-05-25T15:18:07;100334.84;;;22.50;83.84
51526;BME280;37611;51.794;21.590;2023-05-25T15:22:08;100336.08;;;22.55;84.16
51526;BME280;37611;51.794;21.590;2023-05-25T15:26:10;100339.61;;;22.55;83.68
51526;BME280;37611;51.794;21.590;2023-05-25T15:30:12;100333.66;;;22.49;83.24
51526;BME280;37611;51.794;21.590;2023-05-25T15:34:13;100331.94;;;22.43;83.53
51526;BME280;37611;51.794;21.590;2023-05-25T15:38:16;100334.58;;;22.40;83.94
51526;BME280;37611;51.794;21.590;2023-05-25T15:42:17;100331.48;;;22.36;83.45
51526;BME280;37611;51.794;21.590;2023-05-25T15:46:19;100332.23;;;22.27;83.47
51526;BME280;37611;51.794;21.590;2023-05-25T15:50:21;100331.84;;;22.16;83.08
51526;BME280;37611;51.794;21.590;2023-05-25T15:54:23;100326.79;;;22.12;83.65
51526;BME280;37611;51.794;21.590;2023-05-25T15:58:24;100326.23;;;22.06;82.90
51526;BME280;37611;51.794;21.590;2023-05-25T16:02:26;100327.20;;;22.02;82.81
51526;BME280;37611;51.794;21.590;2023-05-25T16:06:28;100324.02;;;21.99;83.06
51526;BME280;37611;51.794;21.590;2023-05-25T16:10:31;100323.85;;;21.94;82.60
51526;BME280;37611;51.794;21.590;2023-05-25T16:14:32;100315.48;;;21.90;83.01
51526;BME280;37611;51.794;21.590;2023-05-25T16:18:34;100315.07;;;21.86;82.81
51526;BME280;37611;51.794;21.590;2023-05-25T16:22:36;100312.29;;;21.84;82.79
51526;BME280;37611;51.794;21.590;2023-05-25T16:26:38;100312.54;;;21.84;82.50
51526;BME280;37611;51.794;21.590;2023-05-25T16:30:40;100310.04;;;21.83;83.03
51526;BME280;37611;51.794;21.590;2023-05-25T16:34:42;100310.30;;;21.77;83.13
51526;BME280;37611;51.794;21.590;2023-05-25T16:38:43;100315.45;;;21.69;83.25
51526;BME280;37611;51.794;21.590;2023-05-25T16:42:46;100308.69;;;21.60;83.44
51526;BME280;37611;51.794;21.590;2023-05-25T16:46:47;100312.84;;;21.55;83.77
51526;BME280;37611;51.794;21.590;2023-05-25T16:50:49;100311.00;;;21.53;84.05
51526;BME280;37611;51.794;21.590;2023-05-25T16:54:51;100306.66;;;21.49;84.52
51526;BME280;37611;51.794;21.590;2023-05-25T16:58:52;100307.66;;;21.49;84.55
51526;BME280;37611;51.794;21.590;2023-05-25T17:02:54;100308.57;;;21.54;83.96
51526;BME280;37611;51.794;21.590;2023-05-25T17:06:56;100309.91;;;21.61;84.05
51526;BME280;37611;51.794;21.590;2023-05-25T17:10:58;100311.33;;;21.64;83.81
51526;BME280;37611;51.794;21.590;2023-05-25T17:14:59;100311.81;;;21.66;83.94
51526;BME280;37611;51.794;21.590;2023-05-25T17:19:01;100313.80;;;21.63;84.06
51526;BME280;37611;51.794;21.590;2023-05-25T17:23:03;100312.53;;;21.57;83.99
51526;BME280;37611;51.794;21.590;2023-05-25T17:27:04;100317.32;;;21.50;84.26
51526;BME280;37611;51.794;21.590;2023-05-25T17:31:06;100316.98;;;21.38;84.33
51526;BME280;37611;51.794;21.590;2023-05-25T17:35:08;100319.52;;;21.29;85.20
51526;BME280;37611;51.794;21.590;2023-05-25T17:39:10;100319.88;;;21.21;85.23
51526;BME280;37611;51.794;21.590;2023-05-25T17:43:12;100321.00;;;21.12;85.24
51526;BME280;37611;51.794;21.590;2023-05-25T17:47:14;100328.15;;;21.03;85.59
51526;BME280;37611;51.794;21.590;2023-05-25T17:51:16;100329.02;;;20.94;85.79
51526;BME280;37611;51.794;21.590;2023-05-25T17:55:18;100330.06;;;20.88;86.32
51526;BME280;37611;51.794;21.590;2023-05-25T17:59:21;100325.27;;;20.81;86.72
51526;BME280;37611;51.794;21.590;2023-05-25T18:03:22;100327.08;;;20.73;86.92
51526;BME280;37611;51.794;21.590;2023-05-25T18:07:26;100332.49;;;20.64;87.58
51526;BME280;37611;51.794;21.590;2023-05-25T18:11:27;100335.42;;;20.55;87.86
51526;BME280;37611;51.794;21.590;2023-05-25T18:15:30;100339.64;;;20.43;87.95
51526;BME280;37611;51.794;21.590;2023-05-25T18:19:32;100335.81;;;20.28;88.36
51526;BME280;37611;51.794;21.590;2023-05-25T18:23:34;100334.14;;;20.14;88.94
51526;BME280;37611;51.794;21.590;2023-05-25T18:27:35;100337.15;;;20.01;89.52
51526;BME280;37611;51.794;21.590;2023-05-25T18:31:37;100341.52;;;19.91;89.90
51526;BME280;37611;51.794;21.590;2023-05-25T18:35:39;100346.08;;;19.82;90.77
51526;BME280;37611;51.794;21.590;2023-05-25T18:39:40;100351.89;;;19.73;91.07
51526;BME280;37611;51.794;21.590;2023-05-25T18:43:42;100357.45;;;19.65;91.48
51526;BME280;37611;51.794;21.590;2023-05-25T18:47:44;100355.65;;;19.55;91.57
51526;BME280;37611;51.794;21.590;2023-05-25T18:51:46;100356.15;;;19.44;92.26
51526;BME280;37611;51.794;21.590;2023-05-25T18:55:48;100359.89;;;19.31;92.46
51526;BME280;37611;51.794;21.590;2023-05-25T18:59:50;100359.69;;;19.21;93.20
51526;BME280;37611;51.794;21.590;2023-05-25T19:03:52;100361.14;;;19.12;93.59
51526;BME280;37611;51.794;21.590;2023-05-25T19:07:54;100363.10;;;19.02;94.18
51526;BME280;37611;51.794;21.590;2023-05-25T19:11:56;100364.73;;;18.90;94.44
51526;BME280;37611;51.794;21.590;2023-05-25T19:15:57;100364.86;;;18.76;94.47
51526;BME280;37611;51.794;21.590;2023-05-25T19:19:59;100366.69;;;18.64;95.07
51526;BME280;37611;51.794;21.590;2023-05-25T19:24:01;100367.95;;;18.56;95.61
51526;BME280;37611;51.794;21.590;2023-05-25T19:28:03;100365.04;;;18.50;96.32
51526;BME280;37611;51.794;21.590;2023-05-25T19:32:05;100361.59;;;18.43;96.36
51526;BME280;37611;51.794;21.590;2023-05-25T19:36:07;100365.59;;;18.34;97.06
51526;BME280;37611;51.794;21.590;2023-05-25T19:40:09;100359.66;;;18.25;97.23
51526;BME280;37611;51.794;21.590;2023-05-25T19:44:12;100360.39;;;18.18;97.33
51526;BME280;37611;51.794;21.590;2023-05-25T19:48:14;100363.29;;;18.11;97.83
51526;BME280;37611;51.794;21.590;2023-05-25T19:52:15;100367.86;;;18.05;98.31
51526;BME280;37611;51.794;21.590;2023-05-25T19:56:18;100368.31;;;18.01;98.37
51526;BME280;37611;51.794;21.590;2023-05-25T20:00:20;100365.85;;;18.00;98.85
51526;BME280;37611;51.794;21.590;2023-05-25T20:04:24;100366.10;;;17.96;98.92
51526;BME280;37611;51.794;21.590;2023-05-25T20:08:26;100366.47;;;17.90;99.14
51526;BME280;37611;51.794;21.590;2023-05-25T20:12:28;100365.48;;;17.87;99.53
51526;BME280;37611;51.794;21.590;2023-05-25T20:16:30;100363.38;;;17.79;99.82
51526;BME280;37611;51.794;21.590;2023-05-25T20:20:31;100362.38;;;17.76;100.00
51526;BME280;37611;51.794;21.590;2023-05-25T20:24:33;100363.38;;;17.74;100.00
51526;BME280;37611;51.794;21.590;2023-05-25T20:28:35;100364.33;;;17.72;100.00
51526;BME280;37611;51.794;21.590;2023-05-25T20:32:37;100366.11;;;17.70;100.00
51526;BME280;37611;51.794;21.590;2023-05-25T20:36:39;100371.02;;;17.71;100.00
51526;BME280;37611;51.794;21.590;2023-05-25T20:40:40;100364.88;;;17.72;100.00
51526;BME280;37611;51.794;21.590;2023-05-25T20:44:42;100369.29;;;17.72;100.00
51526;BME280;37611;51.794;21.590;2023-05-25T20:48:44;100368.20;;;17.73;100.00
51526;BME280;37611;51.794;21.590;2023-05-25T20:52:46;100370.05;;;17.74;100.00